Millard, Nebraska
Current Conditions -  °F | °C
As of 6:15 AM on Saturday 20 Dec 2014 (Local Time) from KMLE Reporting Station
Haze Haze  
Wind Chill: 26°   Ceiling: 400
Heat Index: 32°   Visibility: 2mi
Dew Point: 31°   Wind: 7mph
Humidity: 96%   Direction: 150°SSE
Pressure: 30.11"   Gusts: NA
Location:  41.2019°N, 96.1258°W
Report Text: KMLE 201215Z AUTO 15006KT 2SM BR OVC004 00/00 A3011 RMK AO2 T00001005
Loading
Personal Weather Stations






























Interactive Weather Map New forecast layout! Learn more

10-Day Weather Forecast

Advertisements
Track Severe Weather on mobile